createdAt,value
2019-02-28T00:00:40.667Z,29.87
2019-02-28T00:03:15.634Z,30.10
2019-02-28T00:05:50.969Z,30.48
2019-02-28T00:08:24.938Z,30.75
2019-02-28T00:11:02.030Z,29.48
2019-02-28T00:13:36.630Z,29.87
2019-02-28T00:16:10.939Z,29.75
2019-02-28T00:18:49.497Z,29.65
2019-02-28T00:21:20.905Z,28.87
2019-02-28T00:23:57.295Z,30.85
2019-02-28T00:26:31.292Z,29.52
2019-02-28T00:29:05.589Z,29.95
2019-02-28T00:31:39.783Z,30.48
2019-02-28T00:34:14.030Z,30.52
2019-02-28T00:36:50.298Z,31.12
2019-02-28T00:39:23.920Z,29.42
2019-02-28T00:41:58.127Z,30.37
2019-02-28T00:44:32.376Z,31.23
2019-02-28T00:47:06.324Z,30.27
2019-02-28T00:49:40.347Z,30.23
2019-02-28T00:52:14.627Z,29.20
2019-02-28T00:54:49.459Z,31.68
2019-02-28T00:57:23.800Z,30.15
2019-02-28T00:59:58.831Z,30.85
2019-02-28T01:02:33.137Z,29.52
2019-02-28T01:05:07.704Z,30.43
2019-02-28T01:07:42.141Z,30.45
2019-02-28T01:10:17.756Z,30.70
2019-02-28T01:12:54.299Z,30.20
2019-02-28T01:15:27.624Z,30.97
2019-02-28T01:18:01.887Z,30.92
2019-02-28T01:20:36.114Z,31.00
2019-02-28T01:23:10.201Z,32.50
2019-02-28T01:25:44.700Z,32.53
2019-02-28T01:28:18.725Z,33.85
2019-02-28T01:30:52.688Z,32.95
2019-02-28T01:33:27.093Z,35.38
2019-02-28T01:36:01.446Z,39.05
2019-02-28T01:38:36.145Z,38.85
2019-02-28T01:41:11.173Z,38.45
2019-02-28T01:43:45.363Z,37.50
2019-02-28T01:46:20.212Z,39.40
2019-02-28T01:48:55.213Z,38.85
2019-02-28T01:51:35.631Z,39.48
2019-02-28T01:54:06.127Z,39.78
2019-02-28T01:56:40.516Z,40.38
2019-02-28T01:59:14.850Z,42.03
2019-02-28T02:01:49.041Z,40.20
2019-02-28T02:04:23.656Z,40.60
2019-02-28T02:06:59.840Z,44.95
2019-02-28T02:09:34.741Z,45.20
2019-02-28T02:12:09.009Z,43.87
2019-02-28T02:14:45.613Z,44.13
2019-02-28T02:17:19.597Z,45.35
2019-02-28T02:19:54.026Z,47.75
2019-02-28T02:22:29.354Z,43.75
2019-02-28T02:25:04.244Z,43.92
2019-02-28T02:27:38.539Z,45.83
2019-02-28T02:30:18.858Z,47.43
2019-02-28T02:32:53.192Z,46.28
2019-02-28T02:35:31.001Z,47.60
2019-02-28T02:38:06.240Z,46.92
2019-02-28T02:40:42.484Z,50.75
2019-02-28T02:43:16.789Z,53.25
2019-02-28T02:45:50.902Z,53.45
2019-02-28T02:48:27.157Z,55.43
2019-02-28T02:51:01.546Z,53.45
2019-02-28T02:53:41.359Z,50.15
2019-02-28T02:56:14.116Z,52.93
2019-02-28T02:58:48.566Z,52.53
2019-02-28T03:01:24.534Z,53.02
2019-02-28T03:03:58.894Z,55.92
2019-02-28T03:06:33.095Z,63.73
2019-02-28T03:09:11.077Z,68.95
2019-02-28T03:11:45.669Z,60.43
2019-02-28T03:14:19.799Z,58.23
2019-02-28T03:16:54.012Z,59.50
2019-02-28T03:19:33.227Z,62.05
2019-02-28T03:22:03.877Z,71.35
2019-02-28T03:24:40.168Z,71.30
2019-02-28T03:27:18.723Z,69.92
2019-02-28T03:29:50.346Z,72.12
2019-02-28T03:32:24.474Z,73.92
2019-02-28T03:34:59.417Z,75.45
2019-02-28T03:37:34.620Z,72.95
2019-02-28T03:40:09.534Z,73.37
2019-02-28T03:42:45.179Z,77.92
2019-02-28T03:45:19.619Z,74.25
2019-02-28T03:47:58.438Z,77.03
2019-02-28T03:50:32.455Z,74.58
2019-02-28T03:53:07.605Z,72.65
2019-02-28T03:55:41.974Z,80.92
2019-02-28T03:58:16.207Z,82.02
2019-02-28T04:00:50.498Z,80.22
2019-02-28T04:03:24.783Z,80.20
2019-02-28T04:06:03.899Z,79.95
2019-02-28T04:08:38.206Z,80.40
2019-02-28T04:11:12.403Z,78.30
2019-02-28T04:13:46.448Z,77.40
2019-02-28T04:16:20.611Z,76.05
2019-02-28T04:18:54.858Z,78.12
2019-02-28T04:21:29.053Z,75.70
2019-02-28T04:24:03.310Z,74.90
2019-02-28T04:26:37.482Z,79.00
2019-02-28T04:29:14.499Z,73.97
2019-02-28T04:31:51.295Z,76.75
2019-02-28T04:34:25.726Z,74.77
2019-02-28T04:37:00.035Z,75.05
2019-02-28T04:39:35.263Z,73.33
2019-02-28T04:42:09.926Z,73.42
2019-02-28T04:44:44.173Z,72.22
2019-02-28T04:47:18.414Z,72.42
2019-02-28T04:49:53.531Z,70.60
2019-02-28T04:52:27.611Z,69.30
2019-02-28T04:55:02.898Z,70.05
2019-02-28T04:57:38.528Z,67.55
2019-02-28T05:00:13.086Z,68.10
2019-02-28T05:02:47.249Z,65.78
2019-02-28T05:05:21.299Z,63.33
2019-02-28T05:07:55.662Z,62.62
2019-02-28T05:10:29.927Z,60.83
2019-02-28T05:13:06.263Z,60.12
2019-02-28T05:15:41.168Z,60.50
2019-02-28T05:18:15.730Z,58.10
2019-02-28T05:20:50.089Z,58.05
2019-02-28T05:23:24.384Z,56.13
2019-02-28T05:25:59.527Z,55.63
2019-02-28T05:28:33.740Z,56.15
2019-02-28T05:31:08.165Z,63.23
2019-02-28T05:33:42.933Z,59.93
2019-02-28T05:36:17.572Z,59.00
2019-02-28T05:38:53.613Z,58.98
2019-02-28T05:41:28.304Z,56.30
2019-02-28T05:44:03.292Z,54.65
2019-02-28T05:46:38.726Z,53.17
2019-02-28T05:49:13.067Z,50.70
2019-02-28T05:51:48.200Z,49.83
2019-02-28T05:54:22.518Z,50.92
2019-02-28T05:56:57.086Z,48.02
2019-02-28T05:59:31.245Z,48.58
2019-02-28T06:02:05.466Z,48.75
2019-02-28T06:04:40.474Z,46.95
2019-02-28T06:07:15.250Z,48.00
2019-02-28T06:09:49.425Z,46.18
2019-02-28T06:12:24.075Z,44.90
2019-02-28T06:15:03.182Z,43.38
2019-02-28T06:17:34.863Z,43.28
2019-02-28T06:20:09.917Z,43.13
2019-02-28T06:22:44.480Z,44.20
2019-02-28T06:25:23.878Z,42.62
2019-02-28T06:27:55.117Z,42.45
2019-02-28T06:30:29.017Z,40.67
2019-02-28T06:33:04.284Z,41.28
2019-02-28T06:35:39.386Z,40.20
2019-02-28T06:38:16.205Z,39.48
2019-02-28T06:40:49.769Z,38.53
2019-02-28T06:43:24.345Z,39.20
2019-02-28T06:45:58.542Z,38.83
2019-02-28T06:48:32.778Z,37.28
2019-02-28T06:51:06.884Z,36.90
2019-02-28T06:53:42.252Z,36.42
2019-02-28T06:56:19.412Z,36.73
2019-02-28T06:58:52.668Z,36.23
2019-02-28T07:01:29.588Z,34.65
2019-02-28T07:04:04.101Z,34.88
2019-02-28T07:06:39.804Z,34.85
2019-02-28T07:09:14.143Z,35.35
2019-02-28T07:11:51.348Z,33.28
2019-02-28T07:14:28.433Z,34.15
2019-02-28T07:17:07.746Z,33.55
2019-02-28T07:19:41.375Z,34.50
2019-02-28T07:22:19.626Z,34.23
2019-02-28T07:24:51.986Z,33.23
2019-02-28T07:27:29.740Z,32.13
2019-02-28T07:30:03.729Z,33.00
2019-02-28T07:32:39.862Z,33.88
2019-02-28T07:35:14.356Z,33.53
2019-02-28T07:37:53.382Z,32.73
2019-02-28T07:40:24.613Z,34.08
2019-02-28T07:42:58.667Z,34.10
2019-02-28T07:45:34.189Z,33.70
2019-02-28T07:48:08.555Z,32.00
2019-02-28T07:50:46.695Z,32.65
2019-02-28T07:53:22.007Z,32.45
2019-02-28T07:55:57.674Z,32.40
2019-02-28T07:58:34.003Z,32.25
2019-02-28T08:01:08.896Z,32.33
2019-02-28T08:03:44.928Z,32.45
2019-02-28T08:06:19.502Z,31.37
2019-02-28T08:08:54.308Z,31.73
2019-02-28T08:11:28.824Z,31.23
2019-02-28T08:14:02.915Z,30.82
2019-02-28T08:16:37.259Z,30.85
2019-02-28T08:19:11.468Z,30.80
2019-02-28T08:21:50.179Z,30.62
2019-02-28T08:24:21.437Z,29.77
2019-02-28T08:26:55.525Z,30.43
2019-02-28T08:29:29.727Z,30.12
2019-02-28T08:32:08.044Z,30.30
2019-02-28T08:34:40.303Z,30.57
2019-02-28T08:37:14.889Z,29.63
2019-02-28T08:39:48.831Z,29.87
2019-02-28T08:42:23.125Z,29.50
2019-02-28T08:44:59.144Z,30.35
2019-02-28T08:47:33.450Z,29.77
2019-02-28T08:50:08.352Z,28.32
2019-02-28T08:52:42.613Z,30.08
2019-02-28T08:55:17.381Z,29.20
2019-02-28T08:57:54.721Z,29.07
2019-02-28T09:00:32.642Z,29.12
2019-02-28T09:03:04.026Z,27.02
2019-02-28T09:05:38.111Z,28.38
2019-02-28T09:08:12.302Z,29.18
2019-02-28T09:10:47.908Z,27.58
2019-02-28T09:13:22.648Z,28.10
2019-02-28T09:15:57.049Z,28.57
2019-02-28T09:18:31.433Z,28.45
2019-02-28T09:21:05.721Z,28.75
2019-02-28T09:23:40.240Z,28.90
2019-02-28T09:26:14.639Z,28.38
2019-02-28T09:28:49.942Z,28.57
2019-02-28T09:31:25.825Z,27.77
2019-02-28T09:34:00.236Z,28.20
2019-02-28T09:36:34.692Z,27.80
2019-02-28T09:39:10.525Z,28.20
2019-02-28T09:41:44.731Z,26.85
2019-02-28T09:44:18.978Z,27.17
2019-02-28T09:46:53.364Z,26.33
2019-02-28T09:49:27.638Z,27.00
2019-02-28T09:52:05.959Z,27.65
2019-02-28T09:54:38.925Z,26.52
2019-02-28T09:57:15.410Z,26.30
2019-02-28T09:59:50.549Z,25.75
2019-02-28T10:02:25.070Z,26.27
2019-02-28T10:05:02.895Z,26.40
2019-02-28T10:07:36.314Z,26.30
2019-02-28T10:10:13.975Z,25.85
2019-02-28T10:12:48.299Z,25.80
2019-02-28T10:15:22.891Z,26.10
2019-02-28T10:17:57.266Z,26.25
2019-02-28T10:20:31.672Z,26.37
2019-02-28T10:23:06.077Z,26.60
2019-02-28T10:25:43.514Z,25.72
2019-02-28T10:28:17.856Z,25.00
2019-02-28T10:30:54.794Z,25.23
2019-02-28T10:33:31.468Z,25.08
2019-02-28T10:36:09.245Z,25.70
2019-02-28T10:38:46.410Z,25.80
2019-02-28T10:41:24.211Z,25.57
2019-02-28T10:43:59.064Z,24.80
2019-02-28T10:46:35.984Z,25.77
2019-02-28T10:49:10.253Z,25.65
2019-02-28T10:51:49.522Z,24.87
2019-02-28T10:54:21.807Z,25.23
2019-02-28T10:56:56.057Z,25.08
2019-02-28T10:59:30.367Z,24.80
2019-02-28T11:02:04.819Z,25.05
2019-02-28T11:04:42.843Z,24.75
2019-02-28T11:07:15.618Z,24.20
2019-02-28T11:09:51.403Z,25.00
2019-02-28T11:12:25.791Z,23.50
2019-02-28T11:15:00.083Z,24.72
2019-02-28T11:17:34.385Z,24.40
2019-02-28T11:20:21.642Z,24.10
2019-02-28T11:22:47.198Z,23.52
2019-02-28T11:25:23.564Z,23.90
2019-02-28T11:27:58.307Z,23.60
2019-02-28T11:30:33.009Z,23.57
2019-02-28T11:33:07.656Z,23.87
2019-02-28T11:35:42.020Z,24.07
2019-02-28T11:38:20.473Z,23.38
2019-02-28T11:40:57.357Z,23.55
2019-02-28T11:43:28.616Z,23.62
2019-02-28T11:46:03.234Z,23.90
2019-02-28T11:48:37.866Z,23.42
2019-02-28T11:51:14.668Z,23.00
2019-02-28T11:53:48.352Z,21.80
2019-02-28T11:56:25.563Z,22.93
2019-02-28T11:58:58.634Z,22.77
2019-02-28T12:01:33.767Z,23.65
2019-02-28T12:04:08.034Z,22.52
2019-02-28T12:06:42.468Z,22.73
2019-02-28T12:09:19.287Z,22.42
2019-02-28T12:11:53.129Z,22.50
2019-02-28T12:14:29.306Z,23.90
2019-02-28T12:17:06.261Z,23.10
2019-02-28T12:19:41.720Z,23.47
2019-02-28T12:22:16.111Z,23.18
2019-02-28T12:24:50.776Z,23.30
2019-02-28T12:27:27.519Z,23.05
2019-02-28T12:30:01.551Z,22.17
2019-02-28T12:32:36.123Z,23.07
2019-02-28T12:35:14.894Z,22.55
2019-02-28T12:37:49.501Z,23.12
2019-02-28T12:40:25.756Z,23.45
2019-02-28T12:42:59.869Z,25.75
2019-02-28T12:45:36.463Z,25.32
2019-02-28T12:48:13.721Z,24.60
2019-02-28T12:50:46.548Z,24.92
2019-02-28T12:53:25.242Z,24.72
2019-02-28T12:55:58.066Z,23.90
2019-02-28T12:58:38.710Z,24.55
2019-02-28T13:01:08.721Z,24.70
2019-02-28T13:03:42.781Z,24.45
2019-02-28T13:06:23.453Z,24.92
2019-02-28T13:08:53.573Z,24.15
2019-02-28T13:11:27.767Z,24.12
2019-02-28T13:14:06.158Z,24.07
2019-02-28T13:16:39.169Z,24.32
2019-02-28T13:19:16.342Z,24.45
2019-02-28T13:21:50.811Z,23.22
2019-02-28T13:24:25.062Z,23.65
2019-02-28T13:26:59.335Z,24.25
2019-02-28T13:29:33.944Z,23.92
2019-02-28T13:32:09.401Z,24.35
2019-02-28T13:34:43.681Z,24.77
2019-02-28T13:37:17.617Z,24.35
2019-02-28T13:39:51.961Z,25.25
2019-02-28T13:42:26.067Z,25.72
2019-02-28T13:45:00.249Z,25.60
2019-02-28T13:47:34.567Z,27.42
2019-02-28T13:50:12.509Z,27.55
2019-02-28T13:52:46.746Z,31.30
2019-02-28T13:55:20.710Z,33.20
2019-02-28T13:57:57.394Z,34.30
2019-02-28T14:00:34.425Z,37.40
2019-02-28T14:03:10.481Z,41.10
2019-02-28T14:05:44.887Z,63.78
2019-02-28T14:08:19.123Z,55.15
2019-02-28T14:10:55.517Z,55.35
2019-02-28T14:13:33.838Z,52.83
2019-02-28T14:16:06.908Z,66.70
2019-02-28T14:18:45.445Z,69.07
2019-02-28T14:21:18.015Z,59.90
2019-02-28T14:23:55.694Z,68.75
2019-02-28T14:26:31.099Z,65.67
2019-02-28T14:29:10.224Z,66.50
2019-02-28T14:31:42.806Z,65.52
2019-02-28T14:34:18.057Z,65.25
2019-02-28T14:36:52.234Z,68.28
2019-02-28T14:39:26.389Z,64.80
2019-02-28T14:42:03.083Z,64.42
2019-02-28T14:44:36.645Z,67.67
2019-02-28T14:47:10.771Z,67.37
2019-02-28T14:49:45.015Z,65.80
2019-02-28T14:52:19.215Z,69.42
2019-02-28T14:54:57.141Z,66.90
2019-02-28T14:57:29.572Z,67.27
2019-02-28T15:00:06.474Z,70.75
2019-02-28T15:02:40.457Z,74.85
2019-02-28T15:05:16.710Z,72.78
2019-02-28T15:07:51.013Z,76.20
2019-02-28T15:10:25.486Z,81.35
2019-02-28T15:13:00.265Z,82.22
2019-02-28T15:15:36.124Z,86.78
2019-02-28T15:18:11.033Z,86.70
2019-02-28T15:20:45.643Z,88.65
2019-02-28T15:23:19.817Z,90.65
2019-02-28T15:25:55.290Z,92.30
2019-02-28T15:28:32.940Z,89.65
2019-02-28T15:31:08.670Z,93.30
2019-02-28T15:33:43.406Z,96.00
2019-02-28T15:36:17.633Z,95.80
2019-02-28T15:38:51.674Z,93.47
2019-02-28T15:41:25.888Z,94.00
2019-02-28T15:44:00.201Z,92.47
2019-02-28T15:46:35.940Z,94.25
2019-02-28T15:49:10.987Z,94.30
2019-02-28T15:51:45.161Z,93.70
2019-02-28T15:54:21.656Z,90.72
2019-02-28T15:56:56.440Z,92.37
2019-02-28T15:59:30.825Z,91.87
2019-02-28T16:02:06.263Z,93.00
2019-02-28T16:04:41.079Z,95.45
2019-02-28T16:07:15.601Z,91.28
2019-02-28T16:09:51.011Z,92.20
2019-02-28T16:12:25.453Z,92.42
2019-02-28T16:14:59.950Z,91.37
2019-02-28T16:17:36.666Z,91.10
2019-02-28T16:20:10.948Z,90.70
2019-02-28T16:22:45.206Z,89.62
2019-02-28T16:25:26.109Z,88.65
2019-02-28T16:28:00.485Z,89.07
2019-02-28T16:30:36.048Z,90.03
2019-02-28T16:33:11.085Z,90.12
2019-02-28T16:35:46.684Z,90.45
2019-02-28T16:38:21.231Z,90.53
2019-02-28T16:40:57.624Z,87.42
2019-02-28T16:43:33.978Z,86.57
2019-02-28T16:46:08.990Z,85.55
2019-02-28T16:48:43.418Z,86.40
2019-02-28T16:51:17.932Z,87.15
2019-02-28T16:53:53.196Z,86.95
2019-02-28T16:56:27.771Z,84.95
2019-02-28T16:59:02.016Z,82.92
2019-02-28T17:01:38.684Z,84.03
2019-02-28T17:04:13.526Z,82.22
2019-02-28T17:06:50.812Z,81.80
2019-02-28T17:09:43.826Z,81.65
2019-02-28T17:12:43.127Z,83.47
2019-02-28T17:15:24.117Z,82.02
2019-02-28T17:18:03.097Z,81.47
2019-02-28T17:20:37.693Z,80.25
2019-02-28T17:23:12.184Z,80.53
2019-02-28T17:25:46.553Z,80.75
2019-02-28T17:28:46.590Z,78.10
2019-02-28T17:31:38.036Z,80.85
2019-02-28T17:34:15.069Z,78.83
2019-02-28T17:36:49.585Z,80.47
2019-02-28T17:39:23.917Z,78.97
2019-02-28T17:41:58.056Z,77.40
2019-02-28T17:45:15.492Z,78.20
2019-02-28T17:48:45.310Z,75.92
2019-02-28T17:51:33.419Z,76.70
2019-02-28T17:54:38.144Z,77.67
2019-02-28T17:57:34.565Z,75.85
2019-02-28T18:00:48.246Z,75.25
2019-02-28T18:03:57.712Z,73.97
2019-02-28T18:07:11.750Z,76.30
2019-02-28T18:10:04.299Z,75.60
2019-02-28T18:12:54.915Z,75.97
2019-02-28T18:16:17.920Z,74.15
2019-02-28T18:19:22.670Z,76.07
2019-02-28T18:23:04.266Z,75.00
2019-02-28T18:26:19.333Z,73.35
2019-02-28T18:29:57.521Z,71.95
2019-02-28T18:32:33.286Z,73.15
2019-02-28T18:35:07.656Z,70.83
2019-02-28T18:37:41.762Z,73.50
2019-02-28T18:40:15.966Z,73.05
2019-02-28T18:42:51.488Z,72.12
2019-02-28T18:45:25.919Z,72.85
2019-02-28T18:48:00.183Z,73.33
2019-02-28T18:50:34.632Z,73.45
2019-02-28T18:53:09.098Z,74.05
2019-02-28T18:55:43.261Z,73.35
2019-02-28T18:58:17.638Z,72.78
2019-02-28T19:00:52.322Z,72.67
2019-02-28T19:03:26.638Z,71.55
2019-02-28T19:06:00.934Z,71.87
2019-02-28T19:08:35.346Z,71.00
2019-02-28T19:11:09.776Z,72.47
2019-02-28T19:13:43.955Z,71.33
2019-02-28T19:16:19.491Z,70.55
2019-02-28T19:18:53.894Z,70.35
2019-02-28T19:21:28.091Z,71.12
2019-02-28T19:24:02.197Z,71.70
2019-02-28T19:26:36.844Z,71.85
2019-02-28T19:29:10.985Z,70.78
2019-02-28T19:31:45.557Z,70.70
2019-02-28T19:34:19.583Z,70.60
2019-02-28T19:36:54.020Z,70.47
2019-02-28T19:39:28.285Z,72.17
2019-02-28T19:42:02.344Z,69.95
2019-02-28T19:44:36.466Z,69.32
2019-02-28T19:47:10.843Z,69.80
2019-02-28T19:49:45.069Z,69.95
2019-02-28T19:52:19.440Z,69.12
2019-02-28T19:54:53.744Z,69.22
2019-02-28T19:57:27.821Z,70.12
2019-02-28T20:00:02.018Z,67.55
2019-02-28T20:02:37.656Z,69.95
2019-02-28T20:05:11.997Z,69.05
2019-02-28T20:07:46.447Z,69.37
2019-02-28T20:10:21.150Z,69.87
2019-02-28T20:12:55.573Z,69.70
2019-02-28T20:15:31.921Z,69.00
2019-02-28T20:18:06.831Z,68.90
2019-02-28T20:20:41.435Z,68.85
2019-02-28T20:23:15.776Z,69.82
2019-02-28T20:25:50.158Z,68.65
2019-02-28T20:28:24.275Z,69.72
2019-02-28T20:30:58.796Z,68.40
2019-02-28T20:33:32.936Z,67.25
2019-02-28T20:36:07.064Z,68.55
2019-02-28T20:38:41.233Z,70.25
2019-02-28T20:41:15.638Z,66.92
2019-02-28T20:43:49.950Z,68.12
2019-02-28T20:46:24.205Z,66.45
2019-02-28T20:48:58.370Z,67.37
2019-02-28T20:51:32.904Z,67.15
2019-02-28T20:54:07.171Z,67.12
2019-02-28T20:56:41.459Z,66.90
2019-02-28T20:59:15.793Z,66.82
2019-02-28T21:01:49.887Z,66.37
2019-02-28T21:04:24.910Z,67.95
2019-02-28T21:06:59.143Z,66.53
2019-02-28T21:09:33.447Z,66.30
2019-02-28T21:12:07.961Z,66.57
2019-02-28T21:14:42.280Z,65.25
2019-02-28T21:17:16.582Z,65.97
2019-02-28T21:19:50.582Z,65.90
2019-02-28T21:22:24.640Z,66.07
2019-02-28T21:24:58.824Z,65.37
2019-02-28T21:27:33.935Z,66.65
2019-02-28T21:30:11.102Z,65.67
2019-02-28T21:32:45.343Z,64.50
2019-02-28T21:35:20.456Z,65.15
2019-02-28T21:37:54.818Z,64.55
2019-02-28T21:40:29.311Z,62.27
2019-02-28T21:43:03.455Z,65.90
2019-02-28T21:45:37.782Z,64.87
2019-02-28T21:48:11.940Z,64.05
2019-02-28T21:50:45.991Z,66.55
2019-02-28T21:53:20.301Z,62.20
2019-02-28T21:55:54.457Z,64.22
2019-02-28T21:58:28.750Z,64.53
2019-02-28T22:01:04.007Z,63.65
2019-02-28T22:03:38.381Z,63.83
2019-02-28T22:06:13.063Z,63.58
2019-02-28T22:08:47.010Z,64.62
2019-02-28T22:11:21.450Z,63.23
2019-02-28T22:13:55.696Z,62.13
2019-02-28T22:16:30.021Z,64.20
2019-02-28T22:19:04.409Z,63.15
2019-02-28T22:21:40.621Z,64.62
2019-02-28T22:24:14.946Z,64.30
2019-02-28T22:26:48.993Z,64.05
2019-02-28T22:29:23.262Z,62.83
2019-02-28T22:32:23.959Z,63.35
2019-02-28T22:35:02.499Z,66.22
2019-02-28T22:37:36.817Z,63.28
2019-02-28T22:40:11.311Z,63.20
2019-02-28T22:42:45.777Z,63.20
2019-02-28T22:45:21.788Z,63.20
2019-02-28T22:47:57.063Z,63.92
2019-02-28T22:50:31.353Z,63.98
2019-02-28T22:53:05.629Z,63.35
2019-02-28T22:55:39.859Z,64.30
2019-02-28T22:58:14.543Z,64.27
2019-02-28T23:01:09.749Z,62.30
2019-02-28T23:03:44.144Z,62.50
2019-02-28T23:06:18.347Z,63.83
2019-02-28T23:08:52.358Z,62.62
2019-02-28T23:11:26.550Z,61.98
2019-02-28T23:14:01.273Z,63.33
2019-02-28T23:16:35.474Z,62.27
2019-02-28T23:19:09.668Z,63.42
2019-02-28T23:21:43.787Z,63.90
2019-02-28T23:24:17.944Z,63.35
2019-02-28T23:27:28.924Z,62.40
2019-02-28T23:30:31.746Z,61.90
2019-02-28T23:33:12.273Z,62.70
2019-02-28T23:35:48.525Z,61.83
2019-02-28T23:38:22.688Z,61.42
2019-02-28T23:40:59.048Z,61.02
2019-02-28T23:43:33.215Z,62.15
2019-02-28T23:46:07.763Z,61.70
2019-02-28T23:48:42.791Z,60.75
2019-02-28T23:51:17.007Z,62.93
2019-02-28T23:53:51.359Z,62.50
2019-02-28T23:56:25.584Z,63.28
2019-02-28T23:59:00.008Z,65.22
